Terminal Aerodrome Forecast
Issued by NWS Sioux Falls, SD

Home | Current Version | Previous Version | Graphics & Text | Print | Product List | Glossary On
Versions: 1 2 3 4 5 6 7 8 9 10 11 12 13 14 15 16 17
000
FTUS43 KFSD 110500
TAFHON
TAF
KHON 110520Z 1106/1206 17010KT P6SM SCT050 BKN250
     FM111500 VRB04KT P6SM SCT250
     FM112000 06006KT P6SM SCT250=

USA.gov is the U.S. government's official web portal to all federal, state and local government web resources and services.